createdAt,value
2022-11-20T00:01:53.609Z,24.30
2022-11-20T00:04:21.434Z,24.20
2022-11-20T00:06:49.300Z,24.30
2022-11-20T00:09:17.316Z,24.40
2022-11-20T00:11:45.147Z,24.30
2022-11-20T00:14:13.165Z,24.20
2022-11-20T00:16:40.956Z,24.30
2022-11-20T00:19:09.038Z,24.30
2022-11-20T00:21:36.998Z,24.30
2022-11-20T00:24:04.820Z,24.20
2022-11-20T00:26:32.799Z,24.30
2022-11-20T00:29:01.715Z,24.20
2022-11-20T00:31:30.173Z,24.20
2022-11-20T00:33:58.151Z,24.20
2022-11-20T00:36:27.275Z,24.20
2022-11-20T00:38:56.169Z,24.20
2022-11-20T00:41:24.460Z,24.20
2022-11-20T00:43:55.529Z,24.20
2022-11-20T00:46:25.090Z,24.30
2022-11-20T00:48:52.962Z,24.20
2022-11-20T00:51:22.236Z,24.20
2022-11-20T00:53:50.705Z,24.20
2022-11-20T00:56:19.735Z,24.30
2022-11-20T00:58:48.425Z,24.20
2022-11-20T01:01:17.900Z,24.20
2022-11-20T01:03:47.168Z,24.20
2022-11-20T01:06:16.555Z,24.30
2022-11-20T01:08:44.912Z,24.20
2022-11-20T01:11:14.093Z,24.20
2022-11-20T01:13:42.469Z,24.20
2022-11-20T01:16:13.167Z,24.20
2022-11-20T01:18:42.898Z,24.20
2022-11-20T01:21:12.732Z,24.20
2022-11-20T01:23:41.770Z,24.30
2022-11-20T01:26:11.462Z,24.20
2022-11-20T01:28:39.649Z,24.20
2022-11-20T01:31:14.754Z,24.20
2022-11-20T01:33:42.980Z,24.20
2022-11-20T01:36:11.414Z,24.20
2022-11-20T01:38:39.308Z,24.20
2022-11-20T01:41:08.155Z,24.20
2022-11-20T01:43:36.409Z,24.20
2022-11-20T01:46:14.047Z,24.20
2022-11-20T01:49:00.422Z,24.10
2022-11-20T01:51:42.389Z,24.20
2022-11-20T01:54:14.052Z,24.20
2022-11-20T01:56:43.848Z,24.10
2022-11-20T01:59:12.738Z,24.20
2022-11-20T02:01:40.681Z,24.20
2022-11-20T02:04:09.681Z,24.20
2022-11-20T02:06:41.014Z,24.20
2022-11-20T02:09:08.953Z,24.20
2022-11-20T02:11:36.875Z,24.20
2022-11-20T02:14:05.000Z,24.20
2022-11-20T02:16:35.326Z,24.20
2022-11-20T02:19:04.152Z,24.20
2022-11-20T02:21:37.748Z,24.20
2022-11-20T02:24:11.774Z,24.10
2022-11-20T02:26:42.853Z,24.10
2022-11-20T02:29:10.733Z,24.20
2022-11-20T02:31:39.839Z,24.20
2022-11-20T02:34:07.787Z,24.20
2022-11-20T02:36:36.701Z,24.20
2022-11-20T02:39:05.034Z,24.20
2022-11-20T02:41:34.374Z,24.20
2022-11-20T02:44:02.286Z,24.10
2022-11-20T02:46:30.304Z,24.20
2022-11-20T02:48:58.090Z,24.20
2022-11-20T02:51:26.039Z,24.20
2022-11-20T02:53:53.879Z,24.20
2022-11-20T02:56:21.791Z,24.20
2022-11-20T02:58:49.742Z,24.20
2022-11-20T03:01:17.485Z,24.10
2022-11-20T03:03:45.515Z,24.10
2022-11-20T03:06:13.490Z,24.20
2022-11-20T03:08:41.264Z,24.10
2022-11-20T03:11:09.380Z,24.10
2022-11-20T03:13:37.198Z,24.10
2022-11-20T03:16:12.429Z,24.10
2022-11-20T03:18:41.238Z,24.10
2022-11-20T03:21:09.686Z,24.10
2022-11-20T03:23:37.940Z,24.10
2022-11-20T03:26:13.542Z,24.10
2022-11-20T03:28:41.826Z,24.10
2022-11-20T03:31:13.853Z,24.10
2022-11-20T03:33:42.438Z,24.10
2022-11-20T03:36:11.389Z,24.10
2022-11-20T03:38:39.653Z,24.10
2022-11-20T03:41:08.986Z,24.00
2022-11-20T03:43:37.065Z,24.10
2022-11-20T03:46:05.426Z,24.10
2022-11-20T03:48:33.152Z,24.10
2022-11-20T03:51:14.656Z,24.00
2022-11-20T03:53:43.385Z,24.10
2022-11-20T03:56:11.813Z,24.10
2022-11-20T03:58:42.025Z,24.00
2022-11-20T04:01:10.987Z,24.00
2022-11-20T04:03:39.557Z,24.00
2022-11-20T04:06:11.848Z,24.00
2022-11-20T04:08:40.179Z,24.00
2022-11-20T04:11:11.148Z,24.10
2022-11-20T04:13:39.175Z,24.10
2022-11-20T04:16:07.845Z,24.10
2022-11-20T04:18:35.921Z,24.10
2022-11-20T04:21:04.028Z,24.10
2022-11-20T04:23:32.161Z,24.10
2022-11-20T04:26:07.508Z,24.10
2022-11-20T04:28:35.462Z,24.00
2022-11-20T04:31:04.503Z,24.10
2022-11-20T04:33:34.279Z,24.10
2022-11-20T04:36:06.141Z,23.90
2022-11-20T04:38:33.930Z,24.00
2022-11-20T04:41:02.356Z,24.00
2022-11-20T04:43:30.468Z,24.10
2022-11-20T04:45:58.951Z,24.00
2022-11-20T04:48:27.600Z,24.00
2022-11-20T04:50:55.529Z,24.00
2022-11-20T04:53:24.368Z,23.90
2022-11-20T04:55:52.085Z,23.90
2022-11-20T04:58:19.893Z,24.00
2022-11-20T05:00:47.822Z,24.00
2022-11-20T05:03:15.513Z,23.90
2022-11-20T05:05:43.334Z,23.90
2022-11-20T05:08:11.212Z,24.00
2022-11-20T05:10:39.020Z,24.00
2022-11-20T05:13:07.042Z,23.90
2022-11-20T05:15:35.040Z,24.00
2022-11-20T05:18:02.961Z,24.00
2022-11-20T05:20:30.924Z,23.90
2022-11-20T05:22:58.976Z,23.90
2022-11-20T05:25:26.714Z,23.90
2022-11-20T05:27:54.788Z,23.90
2022-11-20T05:30:22.601Z,23.90
2022-11-20T05:32:50.479Z,23.90
2022-11-20T05:35:18.239Z,23.90
2022-11-20T05:37:46.161Z,23.90
2022-11-20T05:40:14.169Z,23.90
2022-11-20T05:42:42.151Z,23.90
2022-11-20T05:45:10.153Z,23.90
2022-11-20T05:47:38.003Z,23.90
2022-11-20T05:50:06.079Z,23.80
2022-11-20T05:52:33.771Z,23.90
2022-11-20T05:55:01.778Z,23.90
2022-11-20T05:57:29.645Z,23.90
2022-11-20T05:59:57.392Z,23.90
2022-11-20T06:02:25.417Z,23.90
2022-11-20T06:04:53.275Z,23.90
2022-11-20T06:07:21.245Z,23.90
2022-11-20T06:09:48.991Z,23.80
2022-11-20T06:12:16.893Z,23.90
2022-11-20T06:14:44.723Z,23.90
2022-11-20T06:17:12.565Z,23.90
2022-11-20T06:19:40.443Z,23.80
2022-11-20T06:22:08.562Z,23.90
2022-11-20T06:24:36.291Z,23.90
2022-11-20T06:27:04.135Z,23.80
2022-11-20T06:29:34.138Z,23.80
2022-11-20T06:32:02.328Z,23.90
2022-11-20T06:34:30.156Z,23.80
2022-11-20T06:36:58.084Z,23.80
2022-11-20T06:39:25.886Z,23.80
2022-11-20T06:41:58.555Z,23.90
2022-11-20T06:44:27.168Z,23.80
2022-11-20T06:46:54.877Z,23.80
2022-11-20T06:49:23.056Z,23.80
2022-11-20T06:51:51.128Z,23.80
2022-11-20T06:54:18.910Z,23.80
2022-11-20T06:56:50.105Z,23.80
2022-11-20T06:59:17.943Z,23.80
2022-11-20T07:01:45.771Z,23.80
2022-11-20T07:04:13.543Z,23.80
2022-11-20T07:06:41.550Z,23.80
2022-11-20T07:09:12.731Z,23.80
2022-11-20T07:11:40.896Z,23.80
2022-11-20T07:14:08.936Z,23.80
2022-11-20T07:16:36.672Z,23.80
2022-11-20T07:19:04.732Z,23.80
2022-11-20T07:21:32.647Z,23.80
2022-11-20T07:24:00.605Z,23.80
2022-11-20T07:26:28.509Z,23.80
2022-11-20T07:28:56.300Z,23.80
2022-11-20T07:31:24.262Z,23.80
2022-11-20T07:33:52.091Z,23.80
2022-11-20T07:36:19.969Z,23.80
2022-11-20T07:38:47.967Z,23.70
2022-11-20T07:41:16.322Z,23.70
2022-11-20T07:43:44.206Z,23.80
2022-11-20T07:46:12.029Z,23.80
2022-11-20T07:48:39.860Z,23.70
2022-11-20T07:51:07.837Z,23.80
2022-11-20T07:53:35.619Z,23.80
2022-11-20T07:56:06.508Z,23.80
2022-11-20T07:58:34.475Z,23.70
2022-11-20T08:01:06.408Z,23.70
2022-11-20T08:03:34.740Z,23.80
2022-11-20T08:06:03.117Z,23.80
2022-11-20T08:08:33.644Z,23.70
2022-11-20T08:11:02.258Z,23.70
2022-11-20T08:13:30.113Z,23.80
2022-11-20T08:15:57.832Z,23.70
2022-11-20T08:18:33.257Z,23.70
2022-11-20T08:21:05.342Z,23.70
2022-11-20T08:23:33.252Z,23.70
2022-11-20T08:26:01.028Z,23.70
2022-11-20T08:28:29.083Z,23.70
2022-11-20T08:31:03.598Z,23.70
2022-11-20T08:33:31.754Z,23.80
2022-11-20T08:36:03.045Z,23.80
2022-11-20T08:38:31.213Z,23.70
2022-11-20T08:41:02.602Z,23.60
2022-11-20T08:43:30.415Z,23.70
2022-11-20T08:45:59.348Z,23.80
2022-11-20T08:48:27.163Z,23.70
2022-11-20T08:50:55.134Z,23.70
2022-11-20T08:53:23.171Z,23.80
2022-11-20T08:55:50.867Z,23.80
2022-11-20T08:58:18.736Z,23.70
2022-11-20T09:00:46.772Z,23.70
2022-11-20T09:03:14.809Z,23.70
2022-11-20T09:05:42.849Z,23.70
2022-11-20T09:08:10.932Z,23.70
2022-11-20T09:10:38.871Z,23.70
2022-11-20T09:13:07.175Z,23.80
2022-11-20T09:15:35.338Z,23.70
2022-11-20T09:18:05.300Z,23.70
2022-11-20T09:20:33.293Z,23.70
2022-11-20T09:23:01.282Z,23.70
2022-11-20T09:25:29.141Z,23.80
2022-11-20T09:28:00.385Z,23.70
2022-11-20T09:30:28.532Z,23.80
2022-11-20T09:32:56.658Z,23.80
2022-11-20T09:35:25.405Z,23.70
2022-11-20T09:37:53.653Z,23.60
2022-11-20T09:40:22.892Z,23.70
2022-11-20T09:43:20.366Z,23.70
2022-11-20T09:46:06.104Z,23.70
2022-11-20T09:48:46.234Z,23.70
2022-11-20T09:51:18.606Z,23.80
2022-11-20T09:53:46.517Z,23.80
2022-11-20T09:56:18.322Z,23.80
2022-11-20T09:58:50.984Z,23.80
2022-11-20T10:01:19.995Z,23.80
2022-11-20T10:03:53.799Z,23.80
2022-11-20T10:06:25.938Z,23.80
2022-11-20T10:09:01.612Z,23.80
2022-11-20T10:11:29.595Z,23.80
2022-11-20T10:14:07.851Z,23.80
2022-11-20T10:16:40.770Z,23.80
2022-11-20T10:19:15.427Z,23.80
2022-11-20T10:22:01.515Z,23.80
2022-11-20T10:24:40.072Z,23.80
2022-11-20T10:27:25.340Z,23.80
2022-11-20T10:30:01.154Z,23.80
2022-11-20T10:32:34.410Z,23.80
2022-11-20T10:35:02.251Z,23.80
2022-11-20T10:37:31.890Z,23.80
2022-11-20T10:40:22.263Z,23.80
2022-11-20T10:42:56.185Z,23.80
2022-11-20T10:45:27.389Z,23.80
2022-11-20T10:48:06.591Z,23.80
2022-11-20T10:50:36.666Z,23.90
2022-11-20T10:53:04.578Z,23.80
2022-11-20T10:55:42.088Z,23.80
2022-11-20T10:58:12.864Z,23.80
2022-11-20T11:00:40.839Z,23.80
2022-11-20T11:03:28.541Z,23.90
2022-11-20T11:06:01.193Z,23.90
2022-11-20T11:08:34.366Z,23.90
2022-11-20T11:11:04.856Z,23.90
2022-11-20T11:13:32.795Z,23.90
2022-11-20T11:16:00.787Z,23.90
2022-11-20T11:18:35.316Z,23.90
2022-11-20T11:21:05.676Z,23.90
2022-11-20T11:23:37.842Z,23.90
2022-11-20T11:26:07.136Z,23.90
2022-11-20T11:28:35.136Z,23.90
2022-11-20T11:31:02.990Z,23.90
2022-11-20T11:33:32.085Z,23.90
2022-11-20T11:36:01.425Z,23.90
2022-11-20T11:38:38.658Z,23.90
2022-11-20T11:41:07.753Z,23.90
2022-11-20T11:43:38.115Z,23.90
2022-11-20T11:46:11.738Z,23.90
2022-11-20T11:48:39.602Z,23.90
2022-11-20T11:51:09.882Z,24.00
2022-11-20T11:53:39.789Z,24.00
2022-11-20T11:56:11.512Z,23.90
2022-11-20T11:58:47.141Z,23.90
2022-11-20T12:01:15.004Z,23.90
2022-11-20T12:03:44.151Z,24.00
2022-11-20T12:06:13.547Z,23.90
2022-11-20T12:08:41.606Z,23.90
2022-11-20T12:11:18.614Z,24.00
2022-11-20T12:13:46.633Z,24.00
2022-11-20T12:16:15.853Z,23.90
2022-11-20T12:18:44.078Z,23.90
2022-11-20T12:21:22.724Z,23.90
2022-11-20T12:24:08.626Z,23.90
2022-11-20T12:26:42.369Z,23.90
2022-11-20T12:29:28.931Z,23.90
2022-11-20T12:32:05.893Z,23.90
2022-11-20T12:34:33.803Z,24.00
2022-11-20T12:37:13.825Z,24.00
2022-11-20T12:39:43.348Z,23.90
2022-11-20T12:42:24.983Z,23.90
2022-11-20T12:44:52.946Z,23.90
2022-11-20T12:47:39.358Z,24.00
2022-11-20T12:50:10.241Z,24.00
2022-11-20T12:52:57.725Z,24.00
2022-11-20T12:55:25.713Z,24.00
2022-11-20T12:57:56.676Z,24.00
2022-11-20T13:00:25.396Z,24.00
2022-11-20T13:02:53.087Z,24.00
2022-11-20T13:05:29.053Z,24.10
2022-11-20T13:07:58.167Z,24.00
2022-11-20T13:10:25.983Z,24.00
2022-11-20T13:13:13.956Z,24.10
2022-11-20T13:15:44.829Z,24.10
2022-11-20T13:18:13.468Z,24.10
2022-11-20T13:20:47.421Z,24.10
2022-11-20T13:23:24.899Z,24.00
2022-11-20T13:25:52.766Z,24.10
2022-11-20T13:28:20.601Z,24.10
2022-11-20T13:30:52.317Z,24.10
2022-11-20T13:33:33.828Z,24.10
2022-11-20T13:36:03.367Z,24.10
2022-11-20T13:38:42.449Z,24.10
2022-11-20T13:41:10.314Z,24.10
2022-11-20T13:43:43.909Z,24.10
2022-11-20T13:46:11.837Z,24.10
2022-11-20T13:48:44.092Z,24.20
2022-11-20T13:51:12.015Z,24.20
2022-11-20T13:53:48.564Z,24.20
2022-11-20T13:56:25.018Z,24.20
2022-11-20T13:59:15.923Z,24.20
2022-11-20T14:01:45.893Z,24.20
2022-11-20T14:04:21.723Z,24.20
2022-11-20T14:06:50.436Z,24.20
2022-11-20T14:09:36.206Z,24.30
2022-11-20T14:12:04.728Z,24.20
2022-11-20T14:14:34.411Z,24.20
2022-11-20T14:17:08.277Z,24.30
2022-11-20T14:19:36.595Z,24.30
2022-11-20T14:22:24.003Z,24.30
2022-11-20T14:25:04.230Z,24.20
2022-11-20T14:27:34.718Z,24.30
2022-11-20T14:30:03.154Z,24.30
2022-11-20T14:32:32.089Z,24.30
2022-11-20T14:35:03.780Z,24.30
2022-11-20T14:37:35.069Z,24.30
2022-11-20T14:40:03.224Z,24.30
2022-11-20T14:42:30.995Z,24.30
2022-11-20T14:45:00.028Z,24.30
2022-11-20T14:47:32.100Z,24.30
2022-11-20T14:50:01.900Z,24.30
2022-11-20T14:52:32.408Z,24.30
2022-11-20T14:55:00.574Z,24.30
2022-11-20T14:57:29.768Z,24.40
2022-11-20T15:00:08.160Z,24.40
2022-11-20T15:02:40.108Z,24.30
2022-11-20T15:05:08.245Z,24.30
2022-11-20T15:07:38.314Z,24.30
2022-11-20T15:10:07.951Z,24.40
2022-11-20T15:12:37.396Z,24.30
2022-11-20T15:15:05.524Z,24.30
2022-11-20T15:17:37.174Z,24.40
2022-11-20T15:20:08.179Z,24.40
2022-11-20T15:22:36.083Z,24.40
2022-11-20T15:25:06.668Z,24.30
2022-11-20T15:27:34.512Z,24.40
2022-11-20T15:30:02.483Z,24.40
2022-11-20T15:32:30.325Z,24.40
2022-11-20T15:34:58.120Z,24.40
2022-11-20T15:37:29.839Z,24.40
2022-11-20T15:39:58.064Z,24.50
2022-11-20T15:42:25.793Z,24.40
2022-11-20T15:44:53.679Z,24.40
2022-11-20T15:47:26.849Z,24.40
2022-11-20T15:49:54.824Z,24.40
2022-11-20T15:52:22.807Z,24.40
2022-11-20T15:54:50.497Z,24.40
2022-11-20T15:57:18.437Z,24.40
2022-11-20T15:59:46.212Z,24.50
2022-11-20T16:02:19.140Z,24.60
2022-11-20T16:04:47.638Z,24.50
2022-11-20T16:07:15.748Z,24.40
2022-11-20T16:09:43.607Z,24.40
2022-11-20T16:12:11.674Z,24.50
2022-11-20T16:14:39.651Z,24.50
2022-11-20T16:17:07.525Z,24.50
2022-11-20T16:19:35.257Z,24.60
2022-11-20T16:22:03.558Z,24.60
2022-11-20T16:24:31.826Z,24.60
2022-11-20T16:26:59.732Z,24.50
2022-11-20T16:29:27.537Z,24.60
2022-11-20T16:31:55.409Z,24.60
2022-11-20T16:34:23.359Z,24.60
2022-11-20T16:36:51.158Z,24.60
2022-11-20T16:39:23.674Z,24.60
2022-11-20T16:41:52.010Z,24.60
2022-11-20T16:44:19.865Z,24.60
2022-11-20T16:46:47.704Z,24.60
2022-11-20T16:49:15.763Z,24.60
2022-11-20T16:51:43.828Z,24.60
2022-11-20T16:54:20.851Z,24.60
2022-11-20T16:56:49.452Z,24.60
2022-11-20T16:59:17.371Z,24.60
2022-11-20T17:01:45.352Z,24.60
2022-11-20T17:04:13.373Z,24.60
2022-11-20T17:06:42.505Z,24.60
2022-11-20T17:09:10.872Z,24.60
2022-11-20T17:11:38.887Z,24.60
2022-11-20T17:14:06.792Z,24.60
2022-11-20T17:16:35.352Z,24.60
2022-11-20T17:19:04.020Z,24.60
2022-11-20T17:21:34.483Z,24.60
2022-11-20T17:24:03.137Z,24.70
2022-11-20T17:26:31.258Z,24.60
2022-11-20T17:29:00.868Z,24.60
2022-11-20T17:31:29.432Z,24.60
2022-11-20T17:33:58.019Z,24.60
2022-11-20T17:36:26.069Z,24.70
2022-11-20T17:38:53.869Z,24.60
2022-11-20T17:41:23.440Z,24.60
2022-11-20T17:43:54.160Z,24.70
2022-11-20T17:46:23.387Z,24.60
2022-11-20T17:48:51.485Z,24.60
2022-11-20T17:51:20.779Z,24.60
2022-11-20T17:53:49.677Z,24.60
2022-11-20T17:56:18.197Z,24.60
2022-11-20T17:58:46.393Z,24.60
2022-11-20T18:01:15.129Z,24.60
2022-11-20T18:03:43.073Z,24.60
2022-11-20T18:06:24.025Z,24.60
2022-11-20T18:08:52.122Z,24.60
2022-11-20T18:11:21.877Z,24.60
2022-11-20T18:13:51.105Z,24.60
2022-11-20T18:16:19.126Z,24.60
2022-11-20T18:18:47.202Z,24.60
2022-11-20T18:21:15.271Z,24.60
2022-11-20T18:23:43.317Z,24.60
2022-11-20T18:26:11.269Z,24.60
2022-11-20T18:28:39.446Z,24.60
2022-11-20T18:31:08.091Z,24.60
2022-11-20T18:33:36.037Z,24.60
2022-11-20T18:36:14.254Z,24.60
2022-11-20T18:38:43.031Z,24.60
2022-11-20T18:41:11.993Z,24.60
2022-11-20T18:43:40.006Z,24.60
2022-11-20T18:46:07.998Z,24.60
2022-11-20T18:48:36.092Z,24.60
2022-11-20T18:51:10.333Z,24.60
2022-11-20T18:53:41.883Z,24.60
2022-11-20T18:56:12.482Z,24.60
2022-11-20T18:58:40.445Z,24.60
2022-11-20T19:01:09.003Z,24.60
2022-11-20T19:03:37.124Z,24.60
2022-11-20T19:06:05.151Z,24.60
2022-11-20T19:08:34.886Z,24.60
2022-11-20T19:11:09.840Z,24.50
2022-11-20T19:13:38.110Z,24.60
2022-11-20T19:16:06.996Z,24.60
2022-11-20T19:18:35.080Z,24.60
2022-11-20T19:21:09.519Z,24.50
2022-11-20T19:23:37.874Z,24.60
2022-11-20T19:26:06.382Z,24.60
2022-11-20T19:28:35.350Z,24.50
2022-11-20T19:31:07.374Z,24.50
2022-11-20T19:33:35.921Z,24.50
2022-11-20T19:36:24.177Z,24.50
2022-11-20T19:38:52.767Z,24.50
2022-11-20T19:41:22.251Z,24.50
2022-11-20T19:43:50.475Z,24.60
2022-11-20T19:46:18.740Z,24.50
2022-11-20T19:48:46.847Z,24.50
2022-11-20T19:51:14.859Z,24.50
2022-11-20T19:53:43.713Z,24.50
2022-11-20T19:56:12.158Z,24.50
2022-11-20T19:58:40.576Z,24.50
2022-11-20T20:01:08.464Z,24.50
2022-11-20T20:03:36.680Z,24.60
2022-11-20T20:06:05.415Z,24.60
2022-11-20T20:08:33.924Z,24.60
2022-11-20T20:11:10.168Z,24.50
2022-11-20T20:13:38.472Z,24.50
2022-11-20T20:16:07.159Z,24.60
2022-11-20T20:18:35.317Z,24.50
2022-11-20T20:21:07.835Z,24.50
2022-11-20T20:23:36.099Z,24.60
2022-11-20T20:26:05.761Z,24.60
2022-11-20T20:28:34.416Z,24.60
2022-11-20T20:31:09.632Z,24.50
2022-11-20T20:33:38.657Z,24.50
2022-11-20T20:36:07.252Z,24.50
2022-11-20T20:38:35.282Z,24.50
2022-11-20T20:41:03.464Z,24.50
2022-11-20T20:43:31.465Z,24.60
2022-11-20T20:45:59.737Z,24.60
2022-11-20T20:48:27.912Z,24.50
2022-11-20T20:51:00.344Z,24.50
2022-11-20T20:53:28.594Z,24.50
2022-11-20T20:55:57.469Z,24.50
2022-11-20T20:58:26.263Z,24.50
2022-11-20T21:00:54.483Z,24.50
2022-11-20T21:03:22.614Z,24.50
2022-11-20T21:05:56.279Z,24.50
2022-11-20T21:08:25.244Z,24.50
2022-11-20T21:10:54.143Z,24.50
2022-11-20T21:13:22.893Z,24.50
2022-11-20T21:15:51.747Z,24.50
2022-11-20T21:18:20.411Z,24.50
2022-11-20T21:20:48.609Z,24.50
2022-11-20T21:23:16.571Z,24.50
2022-11-20T21:25:44.618Z,24.60
2022-11-20T21:28:16.983Z,24.50
2022-11-20T21:30:46.578Z,24.50
2022-11-20T21:33:14.930Z,24.50
2022-11-20T21:35:43.198Z,24.50
2022-11-20T21:38:11.578Z,24.50
2022-11-20T21:40:39.408Z,24.50
2022-11-20T21:43:07.695Z,24.50
2022-11-20T21:45:35.728Z,24.50
2022-11-20T21:48:04.036Z,24.50
2022-11-20T21:50:31.808Z,24.40
2022-11-20T21:52:59.807Z,24.50
2022-11-20T21:55:27.694Z,24.50
2022-11-20T21:57:55.612Z,24.50
2022-11-20T22:00:23.646Z,24.50
2022-11-20T22:02:51.758Z,24.50
2022-11-20T22:05:19.853Z,24.60
2022-11-20T22:07:47.869Z,24.50
2022-11-20T22:10:18.465Z,24.50
2022-11-20T22:12:46.852Z,24.50
2022-11-20T22:15:20.392Z,24.50
2022-11-20T22:18:01.338Z,24.50
2022-11-20T22:20:29.100Z,24.50
2022-11-20T22:22:57.366Z,24.50
2022-11-20T22:25:25.550Z,24.50
2022-11-20T22:27:53.528Z,24.50
2022-11-20T22:30:21.629Z,24.40
2022-11-20T22:32:50.581Z,24.50
2022-11-20T22:35:18.531Z,24.50
2022-11-20T22:37:49.253Z,24.50
2022-11-20T22:40:17.325Z,24.50
2022-11-20T22:42:45.906Z,24.50
2022-11-20T22:45:14.029Z,24.50
2022-11-20T22:47:41.901Z,24.50
2022-11-20T22:50:10.121Z,24.50
2022-11-20T22:52:38.227Z,24.50
2022-11-20T22:55:06.656Z,24.50
2022-11-20T22:57:34.603Z,24.50
2022-11-20T23:00:02.614Z,24.50
2022-11-20T23:02:30.620Z,24.60
2022-11-20T23:04:58.565Z,24.50
2022-11-20T23:07:26.497Z,24.40
2022-11-20T23:09:54.401Z,24.40
2022-11-20T23:12:22.513Z,24.40
2022-11-20T23:14:50.618Z,24.40
2022-11-20T23:17:18.712Z,24.40
2022-11-20T23:19:46.719Z,24.40
2022-11-20T23:22:14.958Z,24.50
2022-11-20T23:24:43.045Z,24.40
2022-11-20T23:27:11.250Z,24.40
2022-11-20T23:29:39.206Z,24.40
2022-11-20T23:32:07.348Z,24.40
2022-11-20T23:34:35.420Z,24.50
2022-11-20T23:37:03.510Z,24.50
2022-11-20T23:39:31.745Z,24.40
2022-11-20T23:41:59.781Z,24.40
2022-11-20T23:44:28.076Z,24.40
2022-11-20T23:46:56.199Z,24.40
2022-11-20T23:49:24.315Z,24.30
2022-11-20T23:51:52.317Z,24.40
2022-11-20T23:54:20.371Z,24.40
2022-11-20T23:56:48.158Z,24.40
2022-11-20T23:59:16.151Z,24.40
